sensor_id;sensor_type;location;lat;lon;timestamp;temperature;humidity
24638;DHT22;12773;50.162;8.548;2022-07-21T00:00:41;22.90;99.90
24638;DHT22;12773;50.162;8.548;2022-07-21T00:03:28;22.80;99.90
24638;DHT22;12773;50.162;8.548;2022-07-21T00:06:16;22.70;99.90
24638;DHT22;12773;50.162;8.548;2022-07-21T00:09:03;22.70;99.90
24638;DHT22;12773;50.162;8.548;2022-07-21T00:11:50;22.60;99.90
24638;DHT22;12773;50.162;8.548;2022-07-21T00:14:38;22.60;99.90
24638;DHT22;12773;50.162;8.548;2022-07-21T00:17:25;22.60;99.90
24638;DHT22;12773;50.162;8.548;2022-07-21T00:20:14;22.60;99.90
24638;DHT22;12773;50.162;8.548;2022-07-21T00:23:02;22.60;99.90
24638;DHT22;12773;50.162;8.548;2022-07-21T00:25:50;22.70;99.90
24638;DHT22;12773;50.162;8.548;2022-07-21T00:28:38;22.70;99.90
24638;DHT22;12773;50.162;8.548;2022-07-21T00:31:25;22.60;99.90
24638;DHT22;12773;50.162;8.548;2022-07-21T00:34:13;22.60;99.90
24638;DHT22;12773;50.162;8.548;2022-07-21T00:37:00;22.60;99.90
24638;DHT22;12773;50.162;8.548;2022-07-21T00:39:48;22.60;99.90
24638;DHT22;12773;50.162;8.548;2022-07-21T00:42:36;22.50;99.90
24638;DHT22;12773;50.162;8.548;2022-07-21T00:45:24;22.50;99.90
24638;DHT22;12773;50.162;8.548;2022-07-21T00:48:11;22.50;99.90
24638;DHT22;12773;50.162;8.548;2022-07-21T00:50:58;22.60;99.90
24638;DHT22;12773;50.162;8.548;2022-07-21T00:53:46;22.50;99.90
24638;DHT22;12773;50.162;8.548;2022-07-21T00:56:33;22.60;99.90
24638;DHT22;12773;50.162;8.548;2022-07-21T00:59:21;22.60;99.90
24638;DHT22;12773;50.162;8.548;2022-07-21T01:02:09;22.60;99.90
24638;DHT22;12773;50.162;8.548;2022-07-21T01:04:57;22.60;99.90
24638;DHT22;12773;50.162;8.548;2022-07-21T01:07:46;22.50;99.90
24638;DHT22;12773;50.162;8.548;2022-07-21T01:10:34;22.50;99.90
24638;DHT22;12773;50.162;8.548;2022-07-21T01:13:21;22.50;99.90
24638;DHT22;12773;50.162;8.548;2022-07-21T01:16:09;22.50;99.90
24638;DHT22;12773;50.162;8.548;2022-07-21T01:18:57;22.60;99.90
24638;DHT22;12773;50.162;8.548;2022-07-21T01:21:46;22.60;99.90
24638;DHT22;12773;50.162;8.548;2022-07-21T01:24:35;22.60;99.90
24638;DHT22;12773;50.162;8.548;2022-07-21T01:27:26;22.60;99.90
24638;DHT22;12773;50.162;8.548;2022-07-21T01:30:15;22.50;99.90
24638;DHT22;12773;50.162;8.548;2022-07-21T01:33:03;22.50;99.90
24638;DHT22;12773;50.162;8.548;2022-07-21T01:35:50;22.50;99.90
24638;DHT22;12773;50.162;8.548;2022-07-21T01:38:37;22.50;99.90
24638;DHT22;12773;50.162;8.548;2022-07-21T01:41:43;22.50;99.90
24638;DHT22;12773;50.162;8.548;2022-07-21T01:44:30;22.50;99.90
24638;DHT22;12773;50.162;8.548;2022-07-21T01:47:18;22.40;99.90
24638;DHT22;12773;50.162;8.548;2022-07-21T01:50:06;22.50;99.90
24638;DHT22;12773;50.162;8.548;2022-07-21T01:52:55;22.60;99.90
24638;DHT22;12773;50.162;8.548;2022-07-21T01:55:43;22.40;99.90
24638;DHT22;12773;50.162;8.548;2022-07-21T01:58:31;22.20;99.90
24638;DHT22;12773;50.162;8.548;2022-07-21T02:01:19;22.10;99.90
24638;DHT22;12773;50.162;8.548;2022-07-21T02:04:07;22.10;99.90
24638;DHT22;12773;50.162;8.548;2022-07-21T02:06:55;21.90;99.90
24638;DHT22;12773;50.162;8.548;2022-07-21T02:09:43;21.70;99.90
24638;DHT22;12773;50.162;8.548;2022-07-21T02:12:30;21.70;99.90
24638;DHT22;12773;50.162;8.548;2022-07-21T02:15:17;21.70;99.90
24638;DHT22;12773;50.162;8.548;2022-07-21T02:18:05;21.50;99.90
24638;DHT22;12773;50.162;8.548;2022-07-21T02:20:52;21.30;99.90
24638;DHT22;12773;50.162;8.548;2022-07-21T02:23:40;21.30;99.90
24638;DHT22;12773;50.162;8.548;2022-07-21T02:26:28;21.30;99.90
24638;DHT22;12773;50.162;8.548;2022-07-21T02:29:15;21.30;99.90
24638;DHT22;12773;50.162;8.548;2022-07-21T02:32:02;21.20;99.90
24638;DHT22;12773;50.162;8.548;2022-07-21T02:34:50;21.10;99.90
24638;DHT22;12773;50.162;8.548;2022-07-21T02:37:38;21.00;99.90
24638;DHT22;12773;50.162;8.548;2022-07-21T02:40:25;20.90;99.90
24638;DHT22;12773;50.162;8.548;2022-07-21T02:43:13;20.90;99.90
24638;DHT22;12773;50.162;8.548;2022-07-21T02:46:01;21.00;99.90
24638;DHT22;12773;50.162;8.548;2022-07-21T02:48:48;20.90;99.90
24638;DHT22;12773;50.162;8.548;2022-07-21T02:51:36;20.90;99.90
24638;DHT22;12773;50.162;8.548;2022-07-21T02:54:24;20.90;99.90
24638;DHT22;12773;50.162;8.548;2022-07-21T02:57:11;20.70;99.90
24638;DHT22;12773;50.162;8.548;2022-07-21T03:00:00;20.50;99.90
24638;DHT22;12773;50.162;8.548;2022-07-21T03:02:47;20.50;99.90
24638;DHT22;12773;50.162;8.548;2022-07-21T03:05:35;20.40;99.90
24638;DHT22;12773;50.162;8.548;2022-07-21T03:08:25;20.40;99.90
24638;DHT22;12773;50.162;8.548;2022-07-21T03:11:12;20.30;99.90
24638;DHT22;12773;50.162;8.548;2022-07-21T03:13:59;20.30;99.90
24638;DHT22;12773;50.162;8.548;2022-07-21T03:16:47;20.30;99.90
24638;DHT22;12773;50.162;8.548;2022-07-21T03:19:34;20.30;99.90
24638;DHT22;12773;50.162;8.548;2022-07-21T03:22:22;20.40;99.90
24638;DHT22;12773;50.162;8.548;2022-07-21T03:25:10;20.40;99.90
24638;DHT22;12773;50.162;8.548;2022-07-21T03:27:58;20.40;99.90
24638;DHT22;12773;50.162;8.548;2022-07-21T03:30:45;20.30;99.90
24638;DHT22;12773;50.162;8.548;2022-07-21T03:33:32;20.30;99.90
24638;DHT22;12773;50.162;8.548;2022-07-21T03:36:20;20.40;99.90
24638;DHT22;12773;50.162;8.548;2022-07-21T03:39:08;20.50;99.90
24638;DHT22;12773;50.162;8.548;2022-07-21T03:41:55;20.50;99.90
24638;DHT22;12773;50.162;8.548;2022-07-21T03:44:42;20.30;99.90
24638;DHT22;12773;50.162;8.548;2022-07-21T03:47:30;20.20;99.90
24638;DHT22;12773;50.162;8.548;2022-07-21T03:50:18;20.20;99.90
24638;DHT22;12773;50.162;8.548;2022-07-21T03:53:06;20.20;99.90
24638;DHT22;12773;50.162;8.548;2022-07-21T03:55:54;20.20;99.90
24638;DHT22;12773;50.162;8.548;2022-07-21T03:58:41;20.20;99.90
24638;DHT22;12773;50.162;8.548;2022-07-21T04:01:28;20.20;99.90
24638;DHT22;12773;50.162;8.548;2022-07-21T04:04:16;20.10;99.90
24638;DHT22;12773;50.162;8.548;2022-07-21T04:07:03;20.20;99.90
24638;DHT22;12773;50.162;8.548;2022-07-21T04:09:51;20.20;99.90
24638;DHT22;12773;50.162;8.548;2022-07-21T04:12:38;20.10;99.90
24638;DHT22;12773;50.162;8.548;2022-07-21T04:15:26;20.30;99.90
24638;DHT22;12773;50.162;8.548;2022-07-21T04:18:14;20.40;99.90
24638;DHT22;12773;50.162;8.548;2022-07-21T04:21:02;20.50;99.90
24638;DHT22;12773;50.162;8.548;2022-07-21T04:23:50;20.70;99.90
24638;DHT22;12773;50.162;8.548;2022-07-21T04:26:37;20.70;99.90
24638;DHT22;12773;50.162;8.548;2022-07-21T04:29:25;20.80;99.90
24638;DHT22;12773;50.162;8.548;2022-07-21T04:32:13;20.80;99.90
24638;DHT22;12773;50.162;8.548;2022-07-21T04:35:00;20.80;99.90
24638;DHT22;12773;50.162;8.548;2022-07-21T04:37:48;20.80;99.90
24638;DHT22;12773;50.162;8.548;2022-07-21T04:40:36;20.80;99.90
24638;DHT22;12773;50.162;8.548;2022-07-21T04:43:23;20.90;99.90
24638;DHT22;12773;50.162;8.548;2022-07-21T04:46:11;20.90;99.90
24638;DHT22;12773;50.162;8.548;2022-07-21T04:49:00;20.90;99.90
24638;DHT22;12773;50.162;8.548;2022-07-21T04:51:48;20.90;99.90
24638;DHT22;12773;50.162;8.548;2022-07-21T04:54:35;20.90;99.90
24638;DHT22;12773;50.162;8.548;2022-07-21T04:57:23;21.00;99.90
24638;DHT22;12773;50.162;8.548;2022-07-21T05:00:16;20.90;99.90
24638;DHT22;12773;50.162;8.548;2022-07-21T05:03:04;20.90;99.90
24638;DHT22;12773;50.162;8.548;2022-07-21T05:05:52;20.90;99.90
24638;DHT22;12773;50.162;8.548;2022-07-21T05:08:39;20.90;99.90
24638;DHT22;12773;50.162;8.548;2022-07-21T05:11:26;20.80;99.90
24638;DHT22;12773;50.162;8.548;2022-07-21T05:14:14;20.90;99.90
24638;DHT22;12773;50.162;8.548;2022-07-21T05:17:02;20.90;99.90
24638;DHT22;12773;50.162;8.548;2022-07-21T05:19:49;20.80;99.90
24638;DHT22;12773;50.162;8.548;2022-07-21T05:22:38;20.90;99.90
24638;DHT22;12773;50.162;8.548;2022-07-21T05:25:26;21.00;99.90
24638;DHT22;12773;50.162;8.548;2022-07-21T05:28:13;21.10;99.90
24638;DHT22;12773;50.162;8.548;2022-07-21T05:31:00;21.10;99.90
24638;DHT22;12773;50.162;8.548;2022-07-21T05:33:49;21.10;99.90
24638;DHT22;12773;50.162;8.548;2022-07-21T05:36:37;21.10;99.90
24638;DHT22;12773;50.162;8.548;2022-07-21T05:39:24;21.10;99.90
24638;DHT22;12773;50.162;8.548;2022-07-21T05:42:12;21.00;99.90
24638;DHT22;12773;50.162;8.548;2022-07-21T05:45:00;20.80;99.90
24638;DHT22;12773;50.162;8.548;2022-07-21T05:47:47;20.80;99.90
24638;DHT22;12773;50.162;8.548;2022-07-21T05:50:35;20.80;99.90
24638;DHT22;12773;50.162;8.548;2022-07-21T05:53:23;20.70;99.90
24638;DHT22;12773;50.162;8.548;2022-07-21T05:56:10;20.60;99.90
24638;DHT22;12773;50.162;8.548;2022-07-21T05:58:58;20.70;99.90
24638;DHT22;12773;50.162;8.548;2022-07-21T06:01:45;20.60;99.90
24638;DHT22;12773;50.162;8.548;2022-07-21T06:04:33;20.60;99.90
24638;DHT22;12773;50.162;8.548;2022-07-21T06:07:23;20.80;99.90
24638;DHT22;12773;50.162;8.548;2022-07-21T06:10:11;21.00;99.90
24638;DHT22;12773;50.162;8.548;2022-07-21T06:13:01;21.10;99.90
24638;DHT22;12773;50.162;8.548;2022-07-21T06:15:48;21.30;99.90
24638;DHT22;12773;50.162;8.548;2022-07-21T06:18:35;21.50;99.90
24638;DHT22;12773;50.162;8.548;2022-07-21T06:21:23;21.50;99.90
24638;DHT22;12773;50.162;8.548;2022-07-21T06:24:10;21.50;99.90
24638;DHT22;12773;50.162;8.548;2022-07-21T06:26:58;21.30;99.90
24638;DHT22;12773;50.162;8.548;2022-07-21T06:29:47;21.50;99.90
24638;DHT22;12773;50.162;8.548;2022-07-21T06:32:34;21.70;99.90
24638;DHT22;12773;50.162;8.548;2022-07-21T06:35:22;21.50;99.90
24638;DHT22;12773;50.162;8.548;2022-07-21T06:38:10;21.50;99.90
24638;DHT22;12773;50.162;8.548;2022-07-21T06:40:58;21.50;99.90
24638;DHT22;12773;50.162;8.548;2022-07-21T06:43:45;21.50;99.90
24638;DHT22;12773;50.162;8.548;2022-07-21T06:46:33;21.50;99.90
24638;DHT22;12773;50.162;8.548;2022-07-21T06:49:20;21.50;99.90
24638;DHT22;12773;50.162;8.548;2022-07-21T06:52:07;21.50;99.90
24638;DHT22;12773;50.162;8.548;2022-07-21T06:54:55;21.50;99.90
24638;DHT22;12773;50.162;8.548;2022-07-21T06:57:42;21.70;99.90
24638;DHT22;12773;50.162;8.548;2022-07-21T07:00:30;21.70;99.90
24638;DHT22;12773;50.162;8.548;2022-07-21T07:03:19;21.60;99.90
24638;DHT22;12773;50.162;8.548;2022-07-21T07:06:07;21.60;99.90
24638;DHT22;12773;50.162;8.548;2022-07-21T07:08:53;21.90;99.90
24638;DHT22;12773;50.162;8.548;2022-07-21T07:11:41;22.00;99.90
24638;DHT22;12773;50.162;8.548;2022-07-21T07:14:32;21.90;99.90
24638;DHT22;12773;50.162;8.548;2022-07-21T07:17:20;22.00;99.90
24638;DHT22;12773;50.162;8.548;2022-07-21T07:20:08;22.10;99.90
24638;DHT22;12773;50.162;8.548;2022-07-21T07:22:56;22.20;99.90
24638;DHT22;12773;50.162;8.548;2022-07-21T07:25:43;22.30;99.90
24638;DHT22;12773;50.162;8.548;2022-07-21T07:28:31;22.30;99.90
24638;DHT22;12773;50.162;8.548;2022-07-21T07:31:18;22.20;99.90
24638;DHT22;12773;50.162;8.548;2022-07-21T07:34:06;22.30;99.90
24638;DHT22;12773;50.162;8.548;2022-07-21T07:36:53;22.30;99.90
24638;DHT22;12773;50.162;8.548;2022-07-21T07:39:40;22.30;99.90
24638;DHT22;12773;50.162;8.548;2022-07-21T07:42:28;22.50;99.90
24638;DHT22;12773;50.162;8.548;2022-07-21T07:45:15;22.80;99.90
24638;DHT22;12773;50.162;8.548;2022-07-21T07:48:03;23.00;99.90
24638;DHT22;12773;50.162;8.548;2022-07-21T07:50:50;23.20;99.90
24638;DHT22;12773;50.162;8.548;2022-07-21T07:53:38;23.30;99.90
24638;DHT22;12773;50.162;8.548;2022-07-21T07:56:26;23.50;99.90
24638;DHT22;12773;50.162;8.548;2022-07-21T07:59:13;23.70;99.90
24638;DHT22;12773;50.162;8.548;2022-07-21T08:02:01;23.70;99.90
24638;DHT22;12773;50.162;8.548;2022-07-21T08:04:48;24.00;99.90
24638;DHT22;12773;50.162;8.548;2022-07-21T08:07:37;24.10;99.90
24638;DHT22;12773;50.162;8.548;2022-07-21T08:10:24;24.20;99.90
24638;DHT22;12773;50.162;8.548;2022-07-21T08:13:15;24.30;99.90
24638;DHT22;12773;50.162;8.548;2022-07-21T08:16:03;24.20;99.90
24638;DHT22;12773;50.162;8.548;2022-07-21T08:18:50;24.20;99.90
24638;DHT22;12773;50.162;8.548;2022-07-21T08:21:38;24.30;99.90
24638;DHT22;12773;50.162;8.548;2022-07-21T08:24:27;24.60;99.90
24638;DHT22;12773;50.162;8.548;2022-07-21T08:27:14;24.50;99.90
24638;DHT22;12773;50.162;8.548;2022-07-21T08:30:02;24.60;99.90
24638;DHT22;12773;50.162;8.548;2022-07-21T08:32:49;24.70;99.90
24638;DHT22;12773;50.162;8.548;2022-07-21T08:35:37;24.50;99.90
24638;DHT22;12773;50.162;8.548;2022-07-21T08:38:24;24.50;99.90
24638;DHT22;12773;50.162;8.548;2022-07-21T08:41:12;24.30;99.90
24638;DHT22;12773;50.162;8.548;2022-07-21T08:43:59;23.80;99.90
24638;DHT22;12773;50.162;8.548;2022-07-21T08:46:48;23.80;99.90
24638;DHT22;12773;50.162;8.548;2022-07-21T08:49:36;23.70;99.90
24638;DHT22;12773;50.162;8.548;2022-07-21T08:52:24;23.80;99.90
24638;DHT22;12773;50.162;8.548;2022-07-21T08:55:11;23.80;99.90
24638;DHT22;12773;50.162;8.548;2022-07-21T08:58:00;24.10;99.90
24638;DHT22;12773;50.162;8.548;2022-07-21T09:00:51;24.20;99.90
24638;DHT22;12773;50.162;8.548;2022-07-21T09:03:38;24.10;99.90
24638;DHT22;12773;50.162;8.548;2022-07-21T09:06:25;24.40;99.90
24638;DHT22;12773;50.162;8.548;2022-07-21T09:09:18;24.30;99.90
24638;DHT22;12773;50.162;8.548;2022-07-21T09:12:03;24.20;99.90
24638;DHT22;12773;50.162;8.548;2022-07-21T09:14:52;24.50;99.90
24638;DHT22;12773;50.162;8.548;2022-07-21T09:17:40;24.60;99.90
24638;DHT22;12773;50.162;8.548;2022-07-21T09:20:29;25.00;99.90
24638;DHT22;12773;50.162;8.548;2022-07-21T09:23:20;25.00;99.90
24638;DHT22;12773;50.162;8.548;2022-07-21T09:26:08;25.20;99.90
24638;DHT22;12773;50.162;8.548;2022-07-21T09:28:56;25.50;99.90
24638;DHT22;12773;50.162;8.548;2022-07-21T09:31:46;25.80;99.90
24638;DHT22;12773;50.162;8.548;2022-07-21T09:34:35;25.80;99.90
24638;DHT22;12773;50.162;8.548;2022-07-21T09:37:23;25.70;99.90
24638;DHT22;12773;50.162;8.548;2022-07-21T09:40:12;25.80;99.90
24638;DHT22;12773;50.162;8.548;2022-07-21T09:43:00;26.20;99.90
24638;DHT22;12773;50.162;8.548;2022-07-21T09:45:49;26.30;99.90
24638;DHT22;12773;50.162;8.548;2022-07-21T09:48:39;26.00;99.90
24638;DHT22;12773;50.162;8.548;2022-07-21T09:51:32;25.80;99.90
24638;DHT22;12773;50.162;8.548;2022-07-21T09:54:19;25.60;99.90
24638;DHT22;12773;50.162;8.548;2022-07-21T09:57:06;25.70;99.90
24638;DHT22;12773;50.162;8.548;2022-07-21T09:59:54;25.60;99.90
24638;DHT22;12773;50.162;8.548;2022-07-21T10:02:44;25.50;99.90
24638;DHT22;12773;50.162;8.548;2022-07-21T10:05:31;25.20;99.90
24638;DHT22;12773;50.162;8.548;2022-07-21T10:08:19;25.10;99.90
24638;DHT22;12773;50.162;8.548;2022-07-21T10:11:07;25.00;99.90
24638;DHT22;12773;50.162;8.548;2022-07-21T10:13:56;24.90;99.90
24638;DHT22;12773;50.162;8.548;2022-07-21T10:16:44;24.80;99.90
24638;DHT22;12773;50.162;8.548;2022-07-21T10:19:36;24.80;99.90
24638;DHT22;12773;50.162;8.548;2022-07-21T10:25:17;24.60;99.90
24638;DHT22;12773;50.162;8.548;2022-07-21T10:28:19;24.50;99.90
24638;DHT22;12773;50.162;8.548;2022-07-21T10:31:24;24.50;99.90
24638;DHT22;12773;50.162;8.548;2022-07-21T10:34:13;24.50;99.90
24638;DHT22;12773;50.162;8.548;2022-07-21T10:37:00;24.80;99.90
24638;DHT22;12773;50.162;8.548;2022-07-21T10:39:47;25.20;99.90
24638;DHT22;12773;50.162;8.548;2022-07-21T10:42:35;25.40;99.90
24638;DHT22;12773;50.162;8.548;2022-07-21T10:45:33;25.50;99.90
24638;DHT22;12773;50.162;8.548;2022-07-21T10:51:31;25.50;99.90
24638;DHT22;12773;50.162;8.548;2022-07-21T10:54:20;25.50;99.90
24638;DHT22;12773;50.162;8.548;2022-07-21T10:57:27;25.70;99.90
24638;DHT22;12773;50.162;8.548;2022-07-21T11:00:23;25.80;99.90
24638;DHT22;12773;50.162;8.548;2022-07-21T11:03:22;25.90;99.90
24638;DHT22;12773;50.162;8.548;2022-07-21T11:06:23;26.00;99.90
24638;DHT22;12773;50.162;8.548;2022-07-21T11:09:18;26.20;99.90
24638;DHT22;12773;50.162;8.548;2022-07-21T11:12:03;26.20;99.90
24638;DHT22;12773;50.162;8.548;2022-07-21T11:14:52;26.20;99.90
24638;DHT22;12773;50.162;8.548;2022-07-21T11:17:41;26.40;99.90
24638;DHT22;12773;50.162;8.548;2022-07-21T11:20:28;26.70;99.90
24638;DHT22;12773;50.162;8.548;2022-07-21T11:23:16;27.10;99.90
24638;DHT22;12773;50.162;8.548;2022-07-21T11:26:03;27.40;99.90
24638;DHT22;12773;50.162;8.548;2022-07-21T11:29:05;27.70;99.90
24638;DHT22;12773;50.162;8.548;2022-07-21T11:31:53;28.20;99.90
24638;DHT22;12773;50.162;8.548;2022-07-21T11:34:49;28.50;99.90
24638;DHT22;12773;50.162;8.548;2022-07-21T11:37:44;28.80;99.90
24638;DHT22;12773;50.162;8.548;2022-07-21T11:40:31;28.50;99.90
24638;DHT22;12773;50.162;8.548;2022-07-21T11:43:18;28.10;99.90
24638;DHT22;12773;50.162;8.548;2022-07-21T11:46:05;27.70;99.90
24638;DHT22;12773;50.162;8.548;2022-07-21T11:49:04;27.30;99.90
24638;DHT22;12773;50.162;8.548;2022-07-21T11:51:59;27.30;99.90
24638;DHT22;12773;50.162;8.548;2022-07-21T11:54:49;27.40;99.90
24638;DHT22;12773;50.162;8.548;2022-07-21T11:57:42;27.60;99.90
24638;DHT22;12773;50.162;8.548;2022-07-21T12:00:29;27.90;99.90
24638;DHT22;12773;50.162;8.548;2022-07-21T12:03:17;27.80;99.60
24638;DHT22;12773;50.162;8.548;2022-07-21T12:06:04;28.10;99.90
24638;DHT22;12773;50.162;8.548;2022-07-21T12:08:51;28.20;99.90
24638;DHT22;12773;50.162;8.548;2022-07-21T12:11:39;28.50;99.90
24638;DHT22;12773;50.162;8.548;2022-07-21T12:14:48;28.80;99.10
24638;DHT22;12773;50.162;8.548;2022-07-21T12:17:38;29.20;99.80
24638;DHT22;12773;50.162;8.548;2022-07-21T12:20:34;29.20;96.30
24638;DHT22;12773;50.162;8.548;2022-07-21T12:23:23;29.30;94.70
24638;DHT22;12773;50.162;8.548;2022-07-21T12:26:21;29.10;93.70
24638;DHT22;12773;50.162;8.548;2022-07-21T12:29:08;29.10;95.60
24638;DHT22;12773;50.162;8.548;2022-07-21T12:31:56;28.80;95.70
24638;DHT22;12773;50.162;8.548;2022-07-21T12:34:53;28.80;95.30
24638;DHT22;12773;50.162;8.548;2022-07-21T12:37:53;28.90;95.10
24638;DHT22;12773;50.162;8.548;2022-07-21T12:40:46;29.00;94.60
24638;DHT22;12773;50.162;8.548;2022-07-21T12:43:38;29.00;94.40
24638;DHT22;12773;50.162;8.548;2022-07-21T12:46:30;28.80;94.60
24638;DHT22;12773;50.162;8.548;2022-07-21T12:49:17;28.80;93.60
24638;DHT22;12773;50.162;8.548;2022-07-21T12:52:05;29.00;93.20
24638;DHT22;12773;50.162;8.548;2022-07-21T12:54:53;28.90;93.40
24638;DHT22;12773;50.162;8.548;2022-07-21T12:57:41;29.10;93.50
24638;DHT22;12773;50.162;8.548;2022-07-21T13:00:29;29.60;93.70
24638;DHT22;12773;50.162;8.548;2022-07-21T13:03:16;29.80;91.60
24638;DHT22;12773;50.162;8.548;2022-07-21T13:06:04;29.70;89.40
24638;DHT22;12773;50.162;8.548;2022-07-21T13:08:54;29.50;91.90
24638;DHT22;12773;50.162;8.548;2022-07-21T13:11:42;29.30;92.30
24638;DHT22;12773;50.162;8.548;2022-07-21T13:14:30;29.30;91.10
24638;DHT22;12773;50.162;8.548;2022-07-21T13:17:19;29.40;91.90
24638;DHT22;12773;50.162;8.548;2022-07-21T13:20:07;29.70;92.20
24638;DHT22;12773;50.162;8.548;2022-07-21T13:22:54;30.00;91.80
24638;DHT22;12773;50.162;8.548;2022-07-21T13:25:42;30.40;90.60
24638;DHT22;12773;50.162;8.548;2022-07-21T13:28:29;29.90;90.00
24638;DHT22;12773;50.162;8.548;2022-07-21T13:31:16;30.20;90.50
24638;DHT22;12773;50.162;8.548;2022-07-21T13:34:06;30.20;87.00
24638;DHT22;12773;50.162;8.548;2022-07-21T13:36:54;30.20;86.30
24638;DHT22;12773;50.162;8.548;2022-07-21T13:39:41;29.80;85.90
24638;DHT22;12773;50.162;8.548;2022-07-21T13:42:30;29.40;87.40
24638;DHT22;12773;50.162;8.548;2022-07-21T13:45:20;29.00;89.40
24638;DHT22;12773;50.162;8.548;2022-07-21T13:48:07;28.80;90.30
24638;DHT22;12773;50.162;8.548;2022-07-21T13:50:54;28.80;89.80
24638;DHT22;12773;50.162;8.548;2022-07-21T13:53:42;29.00;90.30
24638;DHT22;12773;50.162;8.548;2022-07-21T13:56:30;29.30;89.20
24638;DHT22;12773;50.162;8.548;2022-07-21T13:59:17;29.50;85.60
24638;DHT22;12773;50.162;8.548;2022-07-21T14:02:05;29.40;89.10
24638;DHT22;12773;50.162;8.548;2022-07-21T14:04:52;29.30;89.30
24638;DHT22;12773;50.162;8.548;2022-07-21T14:07:39;29.40;90.20
24638;DHT22;12773;50.162;8.548;2022-07-21T14:10:27;29.30;88.60
24638;DHT22;12773;50.162;8.548;2022-07-21T14:13:14;29.30;88.10
24638;DHT22;12773;50.162;8.548;2022-07-21T14:16:02;29.20;88.80
24638;DHT22;12773;50.162;8.548;2022-07-21T14:18:49;29.30;89.60
24638;DHT22;12773;50.162;8.548;2022-07-21T14:21:37;29.20;88.50
24638;DHT22;12773;50.162;8.548;2022-07-21T14:24:24;29.20;88.60
24638;DHT22;12773;50.162;8.548;2022-07-21T14:27:30;29.00;86.80
24638;DHT22;12773;50.162;8.548;2022-07-21T14:30:19;28.70;85.50
24638;DHT22;12773;50.162;8.548;2022-07-21T14:33:07;28.70;85.70
24638;DHT22;12773;50.162;8.548;2022-07-21T14:35:54;28.60;87.40
24638;DHT22;12773;50.162;8.548;2022-07-21T14:38:42;28.70;85.50
24638;DHT22;12773;50.162;8.548;2022-07-21T14:41:29;28.40;86.60
24638;DHT22;12773;50.162;8.548;2022-07-21T14:44:17;28.20;88.80
24638;DHT22;12773;50.162;8.548;2022-07-21T14:47:05;28.30;89.00
24638;DHT22;12773;50.162;8.548;2022-07-21T14:49:53;28.40;90.50
24638;DHT22;12773;50.162;8.548;2022-07-21T14:52:40;28.80;89.70
24638;DHT22;12773;50.162;8.548;2022-07-21T14:55:28;29.30;89.50
24638;DHT22;12773;50.162;8.548;2022-07-21T14:58:16;29.50;88.50
24638;DHT22;12773;50.162;8.548;2022-07-21T15:01:04;29.10;88.20
24638;DHT22;12773;50.162;8.548;2022-07-21T15:03:51;28.90;89.40
24638;DHT22;12773;50.162;8.548;2022-07-21T15:06:39;28.40;89.90
24638;DHT22;12773;50.162;8.548;2022-07-21T15:09:27;28.20;89.90
24638;DHT22;12773;50.162;8.548;2022-07-21T15:12:15;28.10;89.70
24638;DHT22;12773;50.162;8.548;2022-07-21T15:15:03;28.00;90.60
24638;DHT22;12773;50.162;8.548;2022-07-21T15:17:51;28.20;91.60
24638;DHT22;12773;50.162;8.548;2022-07-21T15:20:38;28.30;91.00
24638;DHT22;12773;50.162;8.548;2022-07-21T15:23:25;28.30;91.60
24638;DHT22;12773;50.162;8.548;2022-07-21T15:26:13;28.40;91.20
24638;DHT22;12773;50.162;8.548;2022-07-21T15:29:00;28.40;91.50
24638;DHT22;12773;50.162;8.548;2022-07-21T15:31:47;28.40;91.40
24638;DHT22;12773;50.162;8.548;2022-07-21T15:34:35;28.40;90.70
24638;DHT22;12773;50.162;8.548;2022-07-21T15:37:22;28.30;91.10
24638;DHT22;12773;50.162;8.548;2022-07-21T15:40:10;28.10;90.20
24638;DHT22;12773;50.162;8.548;2022-07-21T15:42:57;28.10;91.40
24638;DHT22;12773;50.162;8.548;2022-07-21T15:45:46;28.20;90.90
24638;DHT22;12773;50.162;8.548;2022-07-21T15:48:33;28.00;90.50
24638;DHT22;12773;50.162;8.548;2022-07-21T15:51:20;28.00;90.40
24638;DHT22;12773;50.162;8.548;2022-07-21T15:54:07;28.20;91.00
24638;DHT22;12773;50.162;8.548;2022-07-21T15:56:55;28.40;90.20
24638;DHT22;12773;50.162;8.548;2022-07-21T15:59:42;28.50;90.80
24638;DHT22;12773;50.162;8.548;2022-07-21T16:02:30;28.40;90.30
24638;DHT22;12773;50.162;8.548;2022-07-21T16:05:20;28.50;91.30
24638;DHT22;12773;50.162;8.548;2022-07-21T16:08:07;28.50;90.50
24638;DHT22;12773;50.162;8.548;2022-07-21T16:10:54;28.70;89.70
24638;DHT22;12773;50.162;8.548;2022-07-21T16:13:41;28.80;88.90
24638;DHT22;12773;50.162;8.548;2022-07-21T16:16:29;28.90;89.80
24638;DHT22;12773;50.162;8.548;2022-07-21T16:19:18;28.90;90.30
24638;DHT22;12773;50.162;8.548;2022-07-21T16:22:06;28.90;90.00
24638;DHT22;12773;50.162;8.548;2022-07-21T16:24:54;29.10;88.60
24638;DHT22;12773;50.162;8.548;2022-07-21T16:27:42;29.30;90.10
24638;DHT22;12773;50.162;8.548;2022-07-21T16:30:29;29.20;90.00
24638;DHT22;12773;50.162;8.548;2022-07-21T16:33:16;29.00;89.40
24638;DHT22;12773;50.162;8.548;2022-07-21T16:36:04;28.70;89.90
24638;DHT22;12773;50.162;8.548;2022-07-21T16:38:51;28.40;90.20
24638;DHT22;12773;50.162;8.548;2022-07-21T16:41:39;28.50;90.50
24638;DHT22;12773;50.162;8.548;2022-07-21T16:44:26;28.80;90.80
24638;DHT22;12773;50.162;8.548;2022-07-21T16:47:13;28.80;90.20
24638;DHT22;12773;50.162;8.548;2022-07-21T16:50:01;28.70;90.40
24638;DHT22;12773;50.162;8.548;2022-07-21T16:52:49;29.00;90.70
24638;DHT22;12773;50.162;8.548;2022-07-21T16:55:36;29.10;89.80
24638;DHT22;12773;50.162;8.548;2022-07-21T16:58:23;28.80;90.20
24638;DHT22;12773;50.162;8.548;2022-07-21T17:01:10;28.70;90.90
24638;DHT22;12773;50.162;8.548;2022-07-21T17:03:57;28.70;90.80
24638;DHT22;12773;50.162;8.548;2022-07-21T17:06:45;28.60;90.90
24638;DHT22;12773;50.162;8.548;2022-07-21T17:09:32;28.50;90.80
24638;DHT22;12773;50.162;8.548;2022-07-21T17:12:19;28.50;91.00
24638;DHT22;12773;50.162;8.548;2022-07-21T17:15:07;28.10;91.90
24638;DHT22;12773;50.162;8.548;2022-07-21T17:17:54;28.10;92.20
24638;DHT22;12773;50.162;8.548;2022-07-21T17:20:42;27.60;92.50
24638;DHT22;12773;50.162;8.548;2022-07-21T17:23:29;27.50;92.90
24638;DHT22;12773;50.162;8.548;2022-07-21T17:26:16;27.50;93.60
24638;DHT22;12773;50.162;8.548;2022-07-21T17:29:04;27.60;93.70
24638;DHT22;12773;50.162;8.548;2022-07-21T17:31:51;27.70;93.70
24638;DHT22;12773;50.162;8.548;2022-07-21T17:34:38;27.50;94.10
24638;DHT22;12773;50.162;8.548;2022-07-21T17:37:26;27.50;94.70
24638;DHT22;12773;50.162;8.548;2022-07-21T17:40:13;27.60;95.00
24638;DHT22;12773;50.162;8.548;2022-07-21T17:43:02;27.60;95.10
24638;DHT22;12773;50.162;8.548;2022-07-21T17:45:50;27.50;95.10
24638;DHT22;12773;50.162;8.548;2022-07-21T17:48:37;27.20;95.50